createdAt,value
2023-04-22T00:00:24.823Z,73.82
2023-04-22T00:02:53.253Z,73.68
2023-04-22T00:05:21.140Z,73.79
2023-04-22T00:07:48.959Z,73.62
2023-04-22T00:10:16.611Z,73.81
2023-04-22T00:12:44.642Z,74.13
2023-04-22T00:15:12.813Z,73.96
2023-04-22T00:17:40.544Z,73.92
2023-04-22T00:20:08.413Z,73.80
2023-04-22T00:22:36.072Z,73.88
2023-04-22T00:25:03.691Z,74.05
2023-04-22T00:27:31.316Z,73.76
2023-04-22T00:29:58.924Z,73.79
2023-04-22T00:32:26.703Z,73.89
2023-04-22T00:34:54.649Z,73.75
2023-04-22T00:37:22.288Z,73.74
2023-04-22T00:39:50.252Z,73.73
2023-04-22T00:42:17.867Z,73.89
2023-04-22T00:44:45.555Z,74.04
2023-04-22T00:47:13.241Z,73.77
2023-04-22T00:49:41.213Z,73.51
2023-04-22T00:52:09.372Z,73.71
2023-04-22T00:54:36.947Z,73.64
2023-04-22T00:57:05.137Z,73.37
2023-04-22T00:59:32.772Z,73.17
2023-04-22T01:02:00.748Z,73.30
2023-04-22T01:04:29.003Z,73.29
2023-04-22T01:06:56.734Z,73.08
2023-04-22T01:09:24.415Z,73.38
2023-04-22T01:11:52.012Z,73.31
2023-04-22T01:14:19.630Z,73.10
2023-04-22T01:16:48.682Z,72.80
2023-04-22T01:19:16.633Z,73.07
2023-04-22T01:21:45.188Z,73.08
2023-04-22T01:24:12.881Z,72.81
2023-04-22T01:26:40.469Z,73.00
2023-04-22T01:29:08.671Z,72.46
2023-04-22T01:31:36.281Z,72.59
2023-04-22T01:34:03.924Z,72.66
2023-04-22T01:36:32.891Z,73.20
2023-04-22T01:39:00.465Z,73.04
2023-04-22T01:41:29.743Z,73.30
2023-04-22T01:43:57.348Z,73.25
2023-04-22T01:46:25.075Z,73.22
2023-04-22T01:48:52.665Z,73.45
2023-04-22T01:51:20.940Z,73.58
2023-04-22T01:53:49.152Z,73.59
2023-04-22T01:56:16.694Z,73.10
2023-04-22T01:58:44.346Z,73.41
2023-04-22T02:01:11.961Z,73.44
2023-04-22T02:03:39.640Z,73.77
2023-04-22T02:06:08.203Z,73.17
2023-04-22T02:08:35.856Z,73.01
2023-04-22T02:11:03.436Z,73.68
2023-04-22T02:13:31.069Z,73.01
2023-04-22T02:15:58.643Z,73.25
2023-04-22T02:18:26.244Z,73.19
2023-04-22T02:20:53.963Z,73.27
2023-04-22T02:23:21.597Z,72.76
2023-04-22T02:25:49.637Z,72.93
2023-04-22T02:28:17.286Z,72.83
2023-04-22T02:30:44.851Z,72.93
2023-04-22T02:33:12.393Z,72.87
2023-04-22T02:35:40.034Z,72.94
2023-04-22T02:38:07.618Z,72.69
2023-04-22T02:40:35.208Z,72.97
2023-04-22T02:43:03.165Z,72.75
2023-04-22T02:45:30.776Z,73.10
2023-04-22T02:47:58.875Z,73.11
2023-04-22T02:50:26.513Z,72.94
2023-04-22T02:52:54.128Z,72.87
2023-04-22T02:55:22.520Z,73.01
2023-04-22T02:57:50.771Z,72.72
2023-04-22T03:00:18.393Z,72.69
2023-04-22T03:02:46.214Z,73.16
2023-04-22T03:05:14.301Z,72.69
2023-04-22T03:07:42.398Z,72.74
2023-04-22T03:10:10.488Z,72.26
2023-04-22T03:12:38.160Z,72.43
2023-04-22T03:15:06.112Z,72.70
2023-04-22T03:17:33.799Z,72.70
2023-04-22T03:20:01.975Z,72.90
2023-04-22T03:22:29.574Z,72.54
2023-04-22T03:24:57.334Z,73.17
2023-04-22T03:27:24.994Z,72.69
2023-04-22T03:29:52.575Z,72.53
2023-04-22T03:32:20.583Z,72.62
2023-04-22T03:34:48.349Z,72.72
2023-04-22T03:37:15.946Z,72.69
2023-04-22T03:39:43.534Z,72.30
2023-04-22T03:42:11.174Z,72.68
2023-04-22T03:44:39.424Z,72.56
2023-04-22T03:47:07.022Z,72.94
2023-04-22T03:49:35.050Z,72.38
2023-04-22T03:52:02.794Z,72.32
2023-04-22T03:54:31.096Z,73.00
2023-04-22T03:56:59.025Z,72.23
2023-04-22T03:59:26.664Z,72.43
2023-04-22T04:01:54.812Z,72.61
2023-04-22T04:04:24.141Z,72.28
2023-04-22T04:06:52.132Z,72.38
2023-04-22T04:09:19.890Z,72.55
2023-04-22T04:11:47.495Z,72.72
2023-04-22T04:14:15.149Z,72.26
2023-04-22T04:16:43.176Z,72.38
2023-04-22T04:19:10.789Z,72.70
2023-04-22T04:21:40.007Z,72.13
2023-04-22T04:24:07.623Z,72.27
2023-04-22T04:26:35.297Z,72.24
2023-04-22T04:29:02.944Z,72.61
2023-04-22T04:31:30.560Z,72.34
2023-04-22T04:33:59.071Z,72.17
2023-04-22T04:36:29.531Z,72.36
2023-04-22T04:38:57.480Z,72.05
2023-04-22T04:41:27.177Z,72.21
2023-04-22T04:43:54.756Z,72.08
2023-04-22T04:46:22.724Z,71.95
2023-04-22T04:48:51.809Z,71.89
2023-04-22T04:51:20.500Z,71.90
2023-04-22T04:53:48.211Z,71.56
2023-04-22T04:56:16.964Z,71.77
2023-04-22T04:58:45.194Z,71.48
2023-04-22T05:01:12.905Z,71.95
2023-04-22T05:03:40.761Z,71.93
2023-04-22T05:06:08.564Z,71.76
2023-04-22T05:08:36.409Z,71.74
2023-04-22T05:11:04.582Z,71.83
2023-04-22T05:13:32.147Z,71.16
2023-04-22T05:15:59.974Z,71.44
2023-04-22T05:18:27.651Z,71.31
2023-04-22T05:20:55.685Z,71.28
2023-04-22T05:23:23.534Z,71.13
2023-04-22T05:25:53.281Z,70.99
2023-04-22T05:28:21.142Z,70.92
2023-04-22T05:30:48.793Z,70.61
2023-04-22T05:33:16.440Z,71.15
2023-04-22T05:35:44.458Z,70.79
2023-04-22T05:38:12.078Z,70.92
2023-04-22T05:40:40.604Z,70.78
2023-04-22T05:43:08.567Z,70.33
2023-04-22T05:45:36.185Z,70.55
2023-04-22T05:48:04.206Z,70.54
2023-04-22T05:50:31.891Z,69.80
2023-04-22T05:52:59.544Z,69.86
2023-04-22T05:55:27.235Z,69.99
2023-04-22T05:57:54.812Z,69.80
2023-04-22T06:00:22.896Z,69.74
2023-04-22T06:02:50.743Z,69.99
2023-04-22T06:05:18.857Z,69.62
2023-04-22T06:07:46.697Z,69.61
2023-04-22T06:10:14.350Z,68.91
2023-04-22T06:12:42.262Z,69.23
2023-04-22T06:15:09.986Z,68.33
2023-04-22T06:17:37.838Z,67.94
2023-04-22T06:20:05.521Z,67.77
2023-04-22T06:22:33.144Z,67.77
2023-04-22T06:25:01.556Z,67.14
2023-04-22T06:27:29.582Z,66.46
2023-04-22T06:29:57.184Z,66.48
2023-04-22T06:32:24.881Z,65.90
2023-04-22T06:34:52.507Z,65.71
2023-04-22T06:37:20.676Z,65.52
2023-04-22T06:39:48.348Z,65.21
2023-04-22T06:42:16.006Z,65.01
2023-04-22T06:44:43.696Z,64.55
2023-04-22T06:47:11.498Z,64.31
2023-04-22T06:49:41.378Z,64.09
2023-04-22T06:52:09.366Z,63.87
2023-04-22T06:54:37.052Z,63.73
2023-04-22T06:57:04.667Z,63.16
2023-04-22T06:59:32.243Z,62.69
2023-04-22T07:02:00.563Z,62.96
2023-04-22T07:04:29.533Z,62.94
2023-04-22T07:06:57.193Z,62.19
2023-04-22T07:09:24.962Z,61.84
2023-04-22T07:11:53.037Z,61.82
2023-04-22T07:14:21.100Z,61.88
2023-04-22T07:16:49.027Z,61.59
2023-04-22T07:19:16.811Z,61.47
2023-04-22T07:21:47.420Z,61.78
2023-04-22T07:24:15.796Z,61.45
2023-04-22T07:26:44.059Z,61.18
2023-04-22T07:29:13.054Z,60.62
2023-04-22T07:31:40.756Z,60.47
2023-04-22T07:34:10.768Z,60.06
2023-04-22T07:36:39.560Z,59.81
2023-04-22T07:39:08.813Z,59.44
2023-04-22T07:41:36.740Z,58.73
2023-04-22T07:44:04.581Z,58.61
2023-04-22T07:46:32.385Z,58.50
2023-04-22T07:49:00.140Z,58.22
2023-04-22T07:51:28.702Z,58.30
2023-04-22T07:53:56.605Z,57.67
2023-04-22T07:56:24.769Z,57.07
2023-04-22T07:58:52.639Z,57.08
2023-04-22T08:01:20.449Z,57.14
2023-04-22T08:03:48.994Z,55.92
2023-04-22T08:06:16.980Z,55.69
2023-04-22T08:08:44.687Z,55.61
2023-04-22T08:11:12.362Z,55.07
2023-04-22T08:13:40.063Z,55.30
2023-04-22T08:16:08.492Z,54.83
2023-04-22T08:18:36.678Z,54.87
2023-04-22T08:21:04.516Z,54.21
2023-04-22T08:23:32.688Z,53.88
2023-04-22T08:26:00.355Z,54.31
2023-04-22T08:28:28.638Z,53.81
2023-04-22T08:30:56.409Z,54.01
2023-04-22T08:33:26.572Z,53.40
2023-04-22T08:35:54.813Z,53.27
2023-04-22T08:38:22.528Z,53.26
2023-04-22T08:40:51.660Z,53.13
2023-04-22T08:43:19.393Z,52.30
2023-04-22T08:45:47.133Z,52.28
2023-04-22T08:48:14.856Z,51.92
2023-04-22T08:50:42.679Z,52.31
2023-04-22T08:53:10.748Z,51.43
2023-04-22T08:55:38.519Z,51.88
2023-04-22T08:58:06.365Z,51.55
2023-04-22T09:00:34.779Z,51.25
2023-04-22T09:03:03.142Z,51.43
2023-04-22T09:05:31.825Z,50.98
2023-04-22T09:07:59.621Z,50.57
2023-04-22T09:10:28.584Z,50.67
2023-04-22T09:12:56.379Z,49.85
2023-04-22T09:15:24.143Z,50.12
2023-04-22T09:17:52.455Z,49.37
2023-04-22T09:20:20.213Z,49.35
2023-04-22T09:22:48.251Z,49.29
2023-04-22T09:25:16.379Z,48.96
2023-04-22T09:27:44.175Z,48.38
2023-04-22T09:30:12.854Z,48.60
2023-04-22T09:32:40.787Z,48.29
2023-04-22T09:35:08.589Z,47.75
2023-04-22T09:37:48.583Z,48.19
2023-04-22T09:40:18.238Z,48.00
2023-04-22T09:42:46.120Z,47.81
2023-04-22T09:45:13.833Z,47.28
2023-04-22T09:47:41.673Z,47.21
2023-04-22T09:50:09.578Z,46.70
2023-04-22T09:52:38.262Z,46.34
2023-04-22T09:55:05.982Z,45.07
2023-04-22T09:57:33.898Z,43.99
2023-04-22T10:00:02.278Z,44.25
2023-04-22T10:02:30.180Z,43.88
2023-04-22T10:04:59.319Z,43.11
2023-04-22T10:07:31.900Z,42.33
2023-04-22T10:09:59.893Z,42.04
2023-04-22T10:12:35.250Z,41.79
2023-04-22T10:15:04.694Z,40.69
2023-04-22T10:17:32.614Z,40.76
2023-04-22T10:20:00.673Z,40.66
2023-04-22T10:22:28.515Z,40.26
2023-04-22T10:24:58.052Z,40.06
2023-04-22T10:27:26.522Z,39.59
2023-04-22T10:29:54.579Z,39.90
2023-04-22T10:32:22.807Z,39.90
2023-04-22T10:34:50.697Z,39.57
2023-04-22T10:37:18.461Z,39.30
2023-04-22T10:39:46.971Z,38.53
2023-04-22T10:42:15.608Z,38.18
2023-04-22T10:44:43.405Z,37.63
2023-04-22T10:47:11.175Z,37.23
2023-04-22T10:49:39.764Z,36.73
2023-04-22T10:52:09.512Z,36.26
2023-04-22T10:54:37.953Z,35.94
2023-04-22T10:57:05.736Z,35.62
2023-04-22T10:59:33.855Z,34.95
2023-04-22T11:02:01.728Z,34.68
2023-04-22T11:04:30.329Z,35.45
2023-04-22T11:06:58.332Z,34.79
2023-04-22T11:09:26.124Z,34.68
2023-04-22T11:11:54.505Z,34.34
2023-04-22T11:14:22.299Z,34.11
2023-04-22T11:16:50.968Z,33.38
2023-04-22T11:19:18.897Z,33.05
2023-04-22T11:21:47.603Z,33.35
2023-04-22T11:24:16.296Z,34.32
2023-04-22T11:26:44.185Z,35.44
2023-04-22T11:29:12.422Z,36.21
2023-04-22T11:31:40.205Z,37.11
2023-04-22T11:34:08.038Z,36.89
2023-04-22T11:36:35.980Z,36.87
2023-04-22T11:39:03.801Z,37.07
2023-04-22T11:41:32.309Z,37.51
2023-04-22T11:44:00.051Z,37.82
2023-04-22T11:46:27.952Z,37.27
2023-04-22T11:48:55.746Z,35.73
2023-04-22T11:51:23.605Z,34.56
2023-04-22T11:53:52.288Z,33.96
2023-04-22T11:56:20.554Z,34.32
2023-04-22T11:58:48.424Z,35.77
2023-04-22T12:01:16.316Z,36.81
2023-04-22T12:03:44.431Z,37.26
2023-04-22T12:06:13.310Z,37.84
2023-04-22T12:08:42.629Z,38.54
2023-04-22T12:11:10.843Z,38.45
2023-04-22T12:13:38.892Z,38.14
2023-04-22T12:16:06.780Z,39.19
2023-04-22T12:18:36.531Z,39.76
2023-04-22T12:21:04.485Z,39.90
2023-04-22T12:23:32.627Z,39.92
2023-04-22T12:26:00.396Z,40.06
2023-04-22T12:28:28.355Z,40.09
2023-04-22T12:30:56.715Z,40.66
2023-04-22T12:33:24.786Z,40.32
2023-04-22T12:35:53.446Z,39.22
2023-04-22T12:38:21.393Z,38.77
2023-04-22T12:40:49.641Z,38.54
2023-04-22T12:43:17.977Z,39.53
2023-04-22T12:45:45.870Z,39.55
2023-04-22T12:48:13.760Z,40.16
2023-04-22T12:50:41.695Z,40.11
2023-04-22T12:53:09.499Z,40.28
2023-04-22T12:55:37.755Z,40.87
2023-04-22T12:58:05.641Z,40.80
2023-04-22T13:00:33.528Z,40.27
2023-04-22T13:03:01.476Z,40.42
2023-04-22T13:05:29.453Z,39.90
2023-04-22T13:08:06.465Z,40.00
2023-04-22T13:10:35.946Z,39.59
2023-04-22T13:13:16.153Z,40.28
2023-04-22T13:15:45.951Z,40.15
2023-04-22T13:18:14.063Z,40.40
2023-04-22T13:20:42.570Z,41.16
2023-04-22T13:23:11.602Z,41.49
2023-04-22T13:25:39.511Z,41.52
2023-04-22T13:28:07.588Z,41.52
2023-04-22T13:30:35.806Z,41.87
2023-04-22T13:33:03.592Z,41.72
2023-04-22T13:35:31.300Z,41.29
2023-04-22T13:37:59.117Z,41.29
2023-04-22T13:40:27.537Z,41.53
2023-04-22T13:42:55.631Z,41.77
2023-04-22T13:45:23.851Z,41.64
2023-04-22T13:47:52.410Z,41.37
2023-04-22T13:50:20.254Z,41.12
2023-04-22T13:52:48.006Z,41.30
2023-04-22T13:55:16.594Z,41.52
2023-04-22T13:57:44.820Z,41.69
2023-04-22T14:00:12.644Z,41.38
2023-04-22T14:02:40.678Z,41.73
2023-04-22T14:05:10.815Z,42.58
2023-04-22T14:07:40.411Z,42.61
2023-04-22T14:10:08.813Z,42.65
2023-04-22T14:12:36.825Z,42.98
2023-04-22T14:15:04.774Z,43.40
2023-04-22T14:17:32.650Z,43.67
2023-04-22T14:20:01.067Z,43.75
2023-04-22T14:22:29.028Z,44.56
2023-04-22T14:24:57.022Z,44.43
2023-04-22T14:27:24.875Z,44.48
2023-04-22T14:29:53.499Z,44.90
2023-04-22T14:32:22.695Z,44.88
2023-04-22T14:34:50.428Z,45.20
2023-04-22T14:37:18.602Z,44.98
2023-04-22T14:39:46.512Z,45.61
2023-04-22T14:42:15.696Z,45.35
2023-04-22T14:44:44.204Z,45.45
2023-04-22T14:47:11.945Z,46.04
2023-04-22T14:49:40.578Z,45.91
2023-04-22T14:52:08.618Z,45.81
2023-04-22T14:54:36.319Z,45.83
2023-04-22T14:57:04.976Z,45.98
2023-04-22T14:59:32.798Z,46.43
2023-04-22T15:02:00.976Z,46.48
2023-04-22T15:04:28.995Z,46.73
2023-04-22T15:06:57.937Z,46.38
2023-04-22T15:09:26.658Z,47.17
2023-04-22T15:11:56.674Z,46.77
2023-04-22T15:14:24.855Z,46.89
2023-04-22T15:16:52.653Z,47.76
2023-04-22T15:19:20.498Z,48.61
2023-04-22T15:21:48.841Z,49.46
2023-04-22T15:24:16.754Z,49.83
2023-04-22T15:26:44.569Z,50.68
2023-04-22T15:29:12.606Z,51.90
2023-04-22T15:31:40.557Z,52.53
2023-04-22T15:34:09.182Z,53.33
2023-04-22T15:36:37.102Z,53.87
2023-04-22T15:39:05.635Z,54.15
2023-04-22T15:41:34.318Z,54.36
2023-04-22T15:44:02.334Z,54.89
2023-04-22T15:46:31.246Z,55.85
2023-04-22T15:48:59.245Z,56.52
2023-04-22T15:51:27.241Z,57.41
2023-04-22T15:53:55.088Z,57.52
2023-04-22T15:56:23.351Z,58.47
2023-04-22T15:58:51.496Z,58.08
2023-04-22T16:01:20.290Z,57.81
2023-04-22T16:03:48.692Z,58.28
2023-04-22T16:06:16.826Z,58.50
2023-04-22T16:08:45.710Z,58.28
2023-04-22T16:11:14.304Z,57.98
2023-04-22T16:13:42.054Z,58.74
2023-04-22T16:16:09.987Z,58.43
2023-04-22T16:18:38.277Z,58.45
2023-04-22T16:21:06.197Z,58.04
2023-04-22T16:23:34.871Z,57.95
2023-04-22T16:26:04.718Z,58.05
2023-04-22T16:28:32.674Z,57.85
2023-04-22T16:31:00.733Z,58.15
2023-04-22T16:33:28.604Z,58.31
2023-04-22T16:35:56.912Z,58.74
2023-04-22T16:38:24.764Z,58.99
2023-04-22T16:40:54.394Z,58.86
2023-04-22T16:43:22.364Z,59.07
2023-04-22T16:45:50.160Z,58.88
2023-04-22T16:48:18.509Z,59.07
2023-04-22T16:50:46.346Z,59.50
2023-04-22T16:53:14.156Z,59.61
2023-04-22T16:55:43.212Z,59.84
2023-04-22T16:58:12.243Z,59.97
2023-04-22T17:00:41.066Z,60.15
2023-04-22T17:03:09.068Z,60.02
2023-04-22T17:05:37.294Z,60.42
2023-04-22T17:08:05.378Z,60.63
2023-04-22T17:10:35.001Z,60.42
2023-04-22T17:13:03.915Z,60.48
2023-04-22T17:15:31.760Z,60.58
2023-04-22T17:17:59.824Z,60.77
2023-04-22T17:20:27.948Z,60.32
2023-04-22T17:22:55.729Z,60.16
2023-04-22T17:25:24.703Z,60.28
2023-04-22T17:27:52.754Z,60.45
2023-04-22T17:30:20.661Z,60.49
2023-04-22T17:32:48.624Z,60.67
2023-04-22T17:35:16.737Z,60.10
2023-04-22T17:37:45.043Z,60.63
2023-04-22T17:40:13.040Z,60.49
2023-04-22T17:42:45.607Z,60.10
2023-04-22T17:45:14.318Z,60.31
2023-04-22T17:47:42.529Z,60.38
2023-04-22T17:50:11.437Z,60.09
2023-04-22T17:52:39.401Z,60.04
2023-04-22T17:55:07.280Z,60.69
2023-04-22T17:57:35.130Z,60.63
2023-04-22T18:00:03.065Z,60.78
2023-04-22T18:02:31.558Z,61.29
2023-04-22T18:04:59.487Z,61.60
2023-04-22T18:07:27.338Z,61.75
2023-04-22T18:09:55.691Z,62.25
2023-04-22T18:12:27.654Z,62.18
2023-04-22T18:14:57.529Z,62.15
2023-04-22T18:17:25.496Z,62.91
2023-04-22T18:20:02.775Z,63.00
2023-04-22T18:22:37.984Z,62.68
2023-04-22T18:25:06.570Z,62.83
2023-04-22T18:27:34.418Z,62.75
2023-04-22T18:30:02.304Z,63.28
2023-04-22T18:32:30.223Z,63.54
2023-04-22T18:34:58.086Z,63.89
2023-04-22T18:37:30.239Z,63.28
2023-04-22T18:39:58.040Z,63.57
2023-04-22T18:42:25.837Z,64.14
2023-04-22T18:44:53.890Z,64.23
2023-04-22T18:47:21.621Z,64.97
2023-04-22T18:49:49.956Z,65.17
2023-04-22T18:52:18.350Z,65.53
2023-04-22T18:54:46.205Z,65.24
2023-04-22T18:57:14.097Z,65.54
2023-04-22T18:59:42.531Z,65.75
2023-04-22T19:02:11.045Z,66.07
2023-04-22T19:04:39.082Z,65.85
2023-04-22T19:07:07.251Z,65.88
2023-04-22T19:09:35.182Z,66.26
2023-04-22T19:12:03.117Z,66.27
2023-04-22T19:14:33.414Z,65.94
2023-04-22T19:17:01.399Z,65.57
2023-04-22T19:19:29.472Z,65.99
2023-04-22T19:21:57.505Z,65.72
2023-04-22T19:24:27.314Z,66.22
2023-04-22T19:26:55.949Z,65.57
2023-04-22T19:29:23.951Z,66.09
2023-04-22T19:31:51.744Z,65.95
2023-04-22T19:34:19.663Z,65.89
2023-04-22T19:36:49.214Z,65.96
2023-04-22T19:39:18.722Z,65.74
2023-04-22T19:41:46.673Z,65.82
2023-04-22T19:44:14.739Z,65.94
2023-04-22T19:46:42.646Z,65.85
2023-04-22T19:49:10.586Z,66.19
2023-04-22T19:51:39.594Z,66.22
2023-04-22T19:54:07.812Z,66.40
2023-04-22T19:56:35.906Z,66.30
2023-04-22T19:59:04.138Z,66.49
2023-04-22T20:01:32.018Z,66.88
2023-04-22T20:04:01.013Z,67.05
2023-04-22T20:06:29.663Z,67.08
2023-04-22T20:08:59.178Z,67.46
2023-04-22T20:11:29.200Z,67.12
2023-04-22T20:13:57.419Z,67.89
2023-04-22T20:16:25.885Z,67.19
2023-04-22T20:18:54.666Z,67.39
2023-04-22T20:21:22.863Z,67.54
2023-04-22T20:23:50.808Z,67.17
2023-04-22T20:26:18.550Z,67.71
2023-04-22T20:28:47.658Z,67.39
2023-04-22T20:31:16.920Z,67.58
2023-04-22T20:33:44.938Z,67.90
2023-04-22T20:36:12.986Z,67.79
2023-04-22T20:38:40.911Z,67.81
2023-04-22T20:41:09.848Z,67.17
2023-04-22T20:43:38.365Z,67.26
2023-04-22T20:46:06.917Z,68.04
2023-04-22T20:48:34.830Z,67.30
2023-04-22T20:51:02.790Z,67.81
2023-04-22T20:53:31.380Z,67.69
2023-04-22T20:55:59.317Z,67.61
2023-04-22T20:58:27.225Z,67.68
2023-04-22T21:00:55.018Z,67.15
2023-04-22T21:03:23.186Z,67.49
2023-04-22T21:05:52.614Z,68.13
2023-04-22T21:08:21.724Z,68.18
2023-04-22T21:10:49.622Z,68.83
2023-04-22T21:13:17.575Z,69.09
2023-04-22T21:15:45.685Z,69.49
2023-04-22T21:18:13.769Z,69.95
2023-04-22T21:20:41.664Z,70.41
2023-04-22T21:23:10.533Z,70.56
2023-04-22T21:25:38.324Z,70.21
2023-04-22T21:28:06.758Z,70.71
2023-04-22T21:30:35.265Z,71.00
2023-04-22T21:33:03.185Z,71.25
2023-04-22T21:35:31.604Z,71.29
2023-04-22T21:37:59.532Z,71.49
2023-04-22T21:40:27.846Z,71.15
2023-04-22T21:42:56.347Z,71.23
2023-04-22T21:45:24.178Z,71.00
2023-04-22T21:47:52.027Z,70.78
2023-04-22T21:50:20.977Z,70.98
2023-04-22T21:52:48.995Z,71.00
2023-04-22T21:55:17.194Z,70.99
2023-04-22T21:57:45.061Z,70.86
2023-04-22T22:00:15.796Z,70.79
2023-04-22T22:02:43.857Z,70.68
2023-04-22T22:05:11.920Z,70.99
2023-04-22T22:07:40.889Z,70.89
2023-04-22T22:10:09.130Z,71.21
2023-04-22T22:12:37.483Z,70.75
2023-04-22T22:15:06.203Z,70.69
2023-04-22T22:17:33.968Z,71.18
2023-04-22T22:20:03.162Z,71.23
2023-04-22T22:22:32.976Z,70.51
2023-04-22T22:25:01.876Z,70.95
2023-04-22T22:27:29.676Z,70.88
2023-04-22T22:29:57.379Z,71.32
2023-04-22T22:32:25.948Z,70.53
2023-04-22T22:34:54.226Z,71.23
2023-04-22T22:37:21.960Z,70.94
2023-04-22T22:39:49.695Z,71.25
2023-04-22T22:42:17.515Z,70.59
2023-04-22T22:44:45.865Z,70.50
2023-04-22T22:47:13.715Z,70.54
2023-04-22T22:49:43.027Z,70.82
2023-04-22T22:52:10.779Z,70.93
2023-04-22T22:54:38.674Z,70.90
2023-04-22T22:57:08.723Z,70.52
2023-04-22T22:59:36.471Z,70.27
2023-04-22T23:02:04.265Z,70.66
2023-04-22T23:04:32.174Z,70.23
2023-04-22T23:07:01.721Z,70.69
2023-04-22T23:09:29.962Z,70.38
2023-04-22T23:11:57.666Z,70.25
2023-04-22T23:14:26.860Z,70.44
2023-04-22T23:16:54.556Z,70.55
2023-04-22T23:19:22.719Z,70.82
2023-04-22T23:21:50.742Z,71.33
2023-04-22T23:24:18.503Z,71.41
2023-04-22T23:26:46.235Z,71.09
2023-04-22T23:29:13.902Z,71.80
2023-04-22T23:31:41.609Z,71.33
2023-04-22T23:34:09.878Z,72.02
2023-04-22T23:36:37.720Z,72.02
2023-04-22T23:39:05.786Z,72.10
2023-04-22T23:41:33.974Z,72.16
2023-04-22T23:44:01.714Z,72.38
2023-04-22T23:46:29.921Z,71.90
2023-04-22T23:48:57.694Z,72.49
2023-04-22T23:51:25.364Z,72.20
2023-04-22T23:53:53.003Z,72.23
2023-04-22T23:56:23.062Z,72.43
2023-04-22T23:58:51.091Z,72.32
